sensor_id;sensor_type;location;lat;lon;timestamp;pressure;altitude;pressure_sealevel;temperature;humidity
68988;BME280;56038;46.080;11.116;2022-09-09T00:03:08;99035.53;;;20.50;75.09
68988;BME280;56038;46.080;11.116;2022-09-09T00:08:19;99025.53;;;20.53;74.54
68988;BME280;56038;46.080;11.116;2022-09-09T00:13:25;99021.00;;;20.44;74.74
68988;BME280;56038;46.080;11.116;2022-09-09T00:18:36;99006.44;;;20.39;74.76
68988;BME280;56038;46.080;11.116;2022-09-09T00:23:45;99015.03;;;20.31;74.87
68988;BME280;56038;46.080;11.116;2022-09-09T00:28:53;99018.72;;;20.40;73.43
68988;BME280;56038;46.080;11.116;2022-09-09T00:34:00;99017.25;;;20.47;73.35
68988;BME280;56038;46.080;11.116;2022-09-09T00:39:12;99013.19;;;20.43;73.53
68988;BME280;56038;46.080;11.116;2022-09-09T00:44:25;99014.84;;;20.44;73.58
68988;BME280;56038;46.080;11.116;2022-09-09T00:49:39;99016.97;;;20.50;72.79
68988;BME280;56038;46.080;11.116;2022-09-09T00:54:52;99025.72;;;20.41;72.76
68988;BME280;56038;46.080;11.116;2022-09-09T01:00:16;99021.00;;;20.44;72.84
68988;BME280;56038;46.080;11.116;2022-09-09T01:05:25;99027.84;;;20.47;72.90
68988;BME280;56038;46.080;11.116;2022-09-09T01:10:37;99027.59;;;20.50;72.71
68988;BME280;56038;46.080;11.116;2022-09-09T01:15:42;99035.44;;;20.51;72.32
68988;BME280;56038;46.080;11.116;2022-09-09T01:20:51;99029.47;;;20.38;72.73
68988;BME280;56038;46.080;11.116;2022-09-09T01:31:23;99028.81;;;20.46;72.18
68988;BME280;56038;46.080;11.116;2022-09-09T01:36:34;99028.41;;;20.50;71.47
68988;BME280;56038;46.080;11.116;2022-09-09T01:41:40;99028.81;;;20.46;71.73
68988;BME280;56038;46.080;11.116;2022-09-09T01:46:42;99029.59;;;20.37;72.39
68988;BME280;56038;46.080;11.116;2022-09-09T01:51:46;99031.88;;;20.41;72.49
68988;BME280;56038;46.080;11.116;2022-09-09T01:56:59;99019.31;;;20.43;72.55
68988;BME280;56038;46.080;11.116;2022-09-09T02:02:10;99026.22;;;20.34;73.16
68988;BME280;56038;46.080;11.116;2022-09-09T02:07:28;99019.78;;;20.27;73.29
68988;BME280;56038;46.080;11.116;2022-09-09T02:12:33;99039.03;;;20.29;73.05
68988;BME280;56038;46.080;11.116;2022-09-09T02:17:37;99024.53;;;20.33;73.13
68988;BME280;56038;46.080;11.116;2022-09-09T02:22:42;99027.47;;;20.30;73.10
68988;BME280;56038;46.080;11.116;2022-09-09T02:27:47;99025.28;;;20.36;72.35
68988;BME280;56038;46.080;11.116;2022-09-09T02:32:52;99015.09;;;20.41;70.99
68988;BME280;56038;46.080;11.116;2022-09-09T02:38:01;99008.63;;;20.33;71.39
68988;BME280;56038;46.080;11.116;2022-09-09T02:43:05;99005.25;;;20.31;70.94
68988;BME280;56038;46.080;11.116;2022-09-09T02:48:13;99006.22;;;20.21;70.61
68988;BME280;56038;46.080;11.116;2022-09-09T02:53:17;99011.75;;;20.18;70.80
68988;BME280;56038;46.080;11.116;2022-09-09T02:58:23;99013.38;;;20.09;71.00
68988;BME280;56038;46.080;11.116;2022-09-09T03:03:25;99010.75;;;20.09;71.25
68988;BME280;56038;46.080;11.116;2022-09-09T03:08:27;99006.28;;;20.10;71.23
68988;BME280;56038;46.080;11.116;2022-09-09T03:13:30;99000.53;;;20.04;71.63
68988;BME280;56038;46.080;11.116;2022-09-09T03:18:32;99006.91;;;20.02;71.17
68988;BME280;56038;46.080;11.116;2022-09-09T03:23:34;98993.66;;;20.02;71.48
68988;BME280;56038;46.080;11.116;2022-09-09T03:28:37;98991.41;;;19.97;71.01
68988;BME280;56038;46.080;11.116;2022-09-09T03:33:39;98997.59;;;19.87;71.19
68988;BME280;56038;46.080;11.116;2022-09-09T03:38:41;98994.44;;;19.93;70.90
68988;BME280;56038;46.080;11.116;2022-09-09T03:43:44;98985.44;;;19.84;71.31
68988;BME280;56038;46.080;11.116;2022-09-09T03:48:46;98983.91;;;19.82;71.13
68988;BME280;56038;46.080;11.116;2022-09-09T03:53:48;98982.22;;;19.81;70.84
68988;BME280;56038;46.080;11.116;2022-09-09T03:58:52;98979.56;;;19.81;71.07
68988;BME280;56038;46.080;11.116;2022-09-09T04:03:53;98979.44;;;19.82;71.01
68988;BME280;56038;46.080;11.116;2022-09-09T04:08:58;98974.81;;;19.74;71.22
68988;BME280;56038;46.080;11.116;2022-09-09T04:14:01;98974.09;;;19.72;71.74
68988;BME280;56038;46.080;11.116;2022-09-09T04:19:03;98980.94;;;19.75;71.51
68988;BME280;56038;46.080;11.116;2022-09-09T04:24:07;98974.41;;;19.79;71.46
68988;BME280;56038;46.080;11.116;2022-09-09T04:29:10;98970.91;;;19.79;71.47
68988;BME280;56038;46.080;11.116;2022-09-09T04:34:12;98971.31;;;19.74;70.97
68988;BME280;56038;46.080;11.116;2022-09-09T04:39:13;98974.09;;;19.72;70.55
68988;BME280;56038;46.080;11.116;2022-09-09T04:44:17;98979.19;;;19.64;70.46
68988;BME280;56038;46.080;11.116;2022-09-09T04:49:18;98985.31;;;19.65;70.18
68988;BME280;56038;46.080;11.116;2022-09-09T04:54:20;98976.09;;;19.59;71.01
68988;BME280;56038;46.080;11.116;2022-09-09T04:59:24;98989.50;;;19.67;70.05
68988;BME280;56038;46.080;11.116;2022-09-09T05:04:26;98982.75;;;19.74;69.81
68988;BME280;56038;46.080;11.116;2022-09-09T05:09:29;98991.19;;;19.68;70.02
68988;BME280;56038;46.080;11.116;2022-09-09T05:14:32;98999.84;;;19.70;68.93
68988;BME280;56038;46.080;11.116;2022-09-09T05:19:34;98992.66;;;19.72;68.86
68988;BME280;56038;46.080;11.116;2022-09-09T05:24:35;98994.31;;;19.73;69.11
68988;BME280;56038;46.080;11.116;2022-09-09T05:29:39;99003.09;;;19.95;67.63
68988;BME280;56038;46.080;11.116;2022-09-09T05:34:41;99003.63;;;19.89;68.09
68988;BME280;56038;46.080;11.116;2022-09-09T05:39:43;99007.75;;;19.82;68.53
68988;BME280;56038;46.080;11.116;2022-09-09T05:44:46;99025.06;;;19.86;69.01
68988;BME280;56038;46.080;11.116;2022-09-09T05:49:48;99009.50;;;19.92;67.64
68988;BME280;56038;46.080;11.116;2022-09-09T05:54:49;98998.78;;;19.94;67.50
68988;BME280;56038;46.080;11.116;2022-09-09T05:59:52;98978.41;;;19.94;67.72
68988;BME280;56038;46.080;11.116;2022-09-09T06:04:54;98992.03;;;20.11;66.08
68988;BME280;56038;46.080;11.116;2022-09-09T06:09:56;98990.81;;;19.94;65.75
68988;BME280;56038;46.080;11.116;2022-09-09T06:15:00;98997.28;;;19.59;67.14
68988;BME280;56038;46.080;11.116;2022-09-09T06:20:03;98995.22;;;19.63;67.52
68988;BME280;56038;46.080;11.116;2022-09-09T06:25:06;98980.72;;;19.88;66.87
68988;BME280;56038;46.080;11.116;2022-09-09T06:30:10;98976.88;;;19.92;67.01
68988;BME280;56038;46.080;11.116;2022-09-09T06:35:12;98977.03;;;20.00;66.57
68988;BME280;56038;46.080;11.116;2022-09-09T06:40:14;98977.59;;;20.03;66.71
68988;BME280;56038;46.080;11.116;2022-09-09T06:45:17;98980.03;;;20.07;67.05
68988;BME280;56038;46.080;11.116;2022-09-09T06:50:19;98980.88;;;20.07;67.35
68988;BME280;56038;46.080;11.116;2022-09-09T06:55:21;98998.47;;;20.18;66.46
68988;BME280;56038;46.080;11.116;2022-09-09T07:00:24;99007.13;;;20.10;66.79
68988;BME280;56038;46.080;11.116;2022-09-09T07:05:26;99000.84;;;20.11;66.41
68988;BME280;56038;46.080;11.116;2022-09-09T07:10:27;99008.09;;;20.40;65.98
68988;BME280;56038;46.080;11.116;2022-09-09T07:15:30;99009.03;;;20.29;66.70
68988;BME280;56038;46.080;11.116;2022-09-09T07:20:33;99009.09;;;20.39;65.92
68988;BME280;56038;46.080;11.116;2022-09-09T07:25:34;99014.84;;;20.44;64.76
68988;BME280;56038;46.080;11.116;2022-09-09T07:30:38;99008.94;;;20.40;64.98
68988;BME280;56038;46.080;11.116;2022-09-09T07:35:40;99002.31;;;20.25;65.65
68988;BME280;56038;46.080;11.116;2022-09-09T07:40:42;99008.72;;;20.22;66.88
68988;BME280;56038;46.080;11.116;2022-09-09T07:45:45;99012.81;;;20.06;68.39
68988;BME280;56038;46.080;11.116;2022-09-09T07:50:47;99020.03;;;19.83;72.01
68988;BME280;56038;46.080;11.116;2022-09-09T07:55:48;99024.50;;;19.82;70.60
68988;BME280;56038;46.080;11.116;2022-09-09T08:00:51;99044.00;;;19.60;72.51
68988;BME280;56038;46.080;11.116;2022-09-09T08:06:00;99043.03;;;19.61;73.13
68988;BME280;56038;46.080;11.116;2022-09-09T08:11:04;99050.56;;;19.77;71.89
68988;BME280;56038;46.080;11.116;2022-09-09T08:16:10;99062.97;;;19.77;72.86
68988;BME280;56038;46.080;11.116;2022-09-09T08:21:14;99069.00;;;19.67;73.38
68988;BME280;56038;46.080;11.116;2022-09-09T08:26:20;99072.47;;;19.79;72.63
68988;BME280;56038;46.080;11.116;2022-09-09T08:31:27;99083.31;;;19.76;73.12
68988;BME280;56038;46.080;11.116;2022-09-09T08:36:31;99085.75;;;19.68;72.37
68988;BME280;56038;46.080;11.116;2022-09-09T08:42:18;99077.31;;;19.74;72.12
68988;BME280;56038;46.080;11.116;2022-09-09T08:47:34;99083.50;;;19.63;70.79
68988;BME280;56038;46.080;11.116;2022-09-09T08:52:43;99107.25;;;19.42;71.54
68988;BME280;56038;46.080;11.116;2022-09-09T08:57:46;99089.56;;;19.32;72.08
68988;BME280;56038;46.080;11.116;2022-09-09T09:02:56;99093.31;;;19.18;73.23
68988;BME280;56038;46.080;11.116;2022-09-09T09:08:12;99122.19;;;19.21;73.10
68988;BME280;56038;46.080;11.116;2022-09-09T09:13:19;99113.28;;;19.22;73.87
68988;BME280;56038;46.080;11.116;2022-09-09T09:18:23;99116.19;;;19.19;73.68
68988;BME280;56038;46.080;11.116;2022-09-09T09:23:29;99123.03;;;19.33;73.97
68988;BME280;56038;46.080;11.116;2022-09-09T09:28:36;99132.41;;;19.48;73.60
68988;BME280;56038;46.080;11.116;2022-09-09T09:33:45;99128.53;;;19.52;73.50
68988;BME280;56038;46.080;11.116;2022-09-09T09:38:54;99121.56;;;19.62;72.48
68988;BME280;56038;46.080;11.116;2022-09-09T09:43:56;99128.41;;;19.97;71.46
68988;BME280;56038;46.080;11.116;2022-09-09T09:49:00;99129.38;;;19.96;72.06
68988;BME280;56038;46.080;11.116;2022-09-09T09:54:15;99135.28;;;19.99;71.34
68988;BME280;56038;46.080;11.116;2022-09-09T09:59:31;99129.97;;;19.99;70.66
68988;BME280;56038;46.080;11.116;2022-09-09T10:04:35;99132.44;;;19.91;69.79
68988;BME280;56038;46.080;11.116;2022-09-09T10:09:37;99122.09;;;20.09;67.99
68988;BME280;56038;46.080;11.116;2022-09-09T10:14:45;99108.84;;;20.30;66.55
68988;BME280;56038;46.080;11.116;2022-09-09T10:20:04;99108.44;;;20.76;64.97
68988;BME280;56038;46.080;11.116;2022-09-09T10:25:31;99103.13;;;21.07;63.03
68988;BME280;56038;46.080;11.116;2022-09-09T10:30:41;99112.63;;;21.00;62.42
68988;BME280;56038;46.080;11.116;2022-09-09T10:35:53;99109.78;;;20.91;63.42
68988;BME280;56038;46.080;11.116;2022-09-09T10:41:11;99102.44;;;20.74;63.06
68988;BME280;56038;46.080;11.116;2022-09-09T10:46:19;99099.50;;;20.68;63.08
68988;BME280;56038;46.080;11.116;2022-09-09T10:51:30;99090.91;;;20.64;61.34
68988;BME280;56038;46.080;11.116;2022-09-09T10:56:35;99094.13;;;20.58;62.02
68988;BME280;56038;46.080;11.116;2022-09-09T11:01:41;99088.47;;;20.72;61.40
68988;BME280;56038;46.080;11.116;2022-09-09T11:06:50;99087.41;;;20.84;61.23
68988;BME280;56038;46.080;11.116;2022-09-09T11:11:56;99098.25;;;20.81;61.62
68988;BME280;56038;46.080;11.116;2022-09-09T11:17:01;99081.97;;;20.96;61.21
68988;BME280;56038;46.080;11.116;2022-09-09T11:22:08;99084.97;;;20.72;61.50
68988;BME280;56038;46.080;11.116;2022-09-09T11:27:20;99088.41;;;20.62;61.44
68988;BME280;56038;46.080;11.116;2022-09-09T11:32:47;99087.50;;;20.73;61.49
68988;BME280;56038;46.080;11.116;2022-09-09T11:38:21;99076.69;;;20.65;61.14
68988;BME280;56038;46.080;11.116;2022-09-09T11:43:27;99079.03;;;20.99;61.11
68988;BME280;56038;46.080;11.116;2022-09-09T11:48:35;99061.09;;;20.81;60.25
68988;BME280;56038;46.080;11.116;2022-09-09T11:53:49;99062.41;;;21.37;60.08
68988;BME280;56038;46.080;11.116;2022-09-09T11:58:57;99061.19;;;21.79;58.51
68988;BME280;56038;46.080;11.116;2022-09-09T12:04:27;99050.53;;;22.28;57.12
68988;BME280;56038;46.080;11.116;2022-09-09T12:09:43;99041.84;;;23.10;55.53
68988;BME280;56038;46.080;11.116;2022-09-09T12:15:15;99041.34;;;23.42;52.71
68988;BME280;56038;46.080;11.116;2022-09-09T12:20:22;99031.97;;;24.09;51.95
68988;BME280;56038;46.080;11.116;2022-09-09T12:25:32;99018.59;;;24.53;50.45
68988;BME280;56038;46.080;11.116;2022-09-09T12:30:45;99012.28;;;24.96;47.03
68988;BME280;56038;46.080;11.116;2022-09-09T12:35:53;99006.38;;;25.34;46.42
68988;BME280;56038;46.080;11.116;2022-09-09T12:40:58;99002.56;;;25.45;47.53
68988;BME280;56038;46.080;11.116;2022-09-09T12:46:02;98995.59;;;25.93;46.68
68988;BME280;56038;46.080;11.116;2022-09-09T12:51:05;98989.88;;;26.12;45.37
68988;BME280;56038;46.080;11.116;2022-09-09T12:56:18;98974.00;;;26.66;43.39
68988;BME280;56038;46.080;11.116;2022-09-09T13:01:23;98974.59;;;26.84;42.31
68988;BME280;56038;46.080;11.116;2022-09-09T13:06:27;98969.66;;;26.96;41.65
68988;BME280;56038;46.080;11.116;2022-09-09T13:11:35;98961.34;;;27.22;41.00
68988;BME280;56038;46.080;11.116;2022-09-09T13:16:39;98952.00;;;27.18;40.27
68988;BME280;56038;46.080;11.116;2022-09-09T13:21:41;98942.41;;;27.47;41.55
68988;BME280;56038;46.080;11.116;2022-09-09T13:26:54;98932.88;;;27.59;39.92
68988;BME280;56038;46.080;11.116;2022-09-09T13:32:04;98915.22;;;27.87;39.21
68988;BME280;56038;46.080;11.116;2022-09-09T13:42:30;98910.59;;;27.58;38.99
68988;BME280;56038;46.080;11.116;2022-09-09T13:47:36;98902.91;;;27.78;38.07
68988;BME280;56038;46.080;11.116;2022-09-09T13:52:43;98909.53;;;27.44;38.05
68988;BME280;56038;46.080;11.116;2022-09-09T13:57:55;98897.50;;;27.63;38.86
68988;BME280;56038;46.080;11.116;2022-09-09T14:02:58;98881.81;;;27.52;38.82
68988;BME280;56038;46.080;11.116;2022-09-09T14:08:03;98864.84;;;27.74;37.50
68988;BME280;56038;46.080;11.116;2022-09-09T14:13:10;98863.09;;;27.82;37.82
68988;BME280;56038;46.080;11.116;2022-09-09T14:18:20;98860.66;;;27.72;38.61
68988;BME280;56038;46.080;11.116;2022-09-09T14:23:22;98856.66;;;27.15;39.68
68988;BME280;56038;46.080;11.116;2022-09-09T14:28:26;98857.06;;;32.87;29.27
68988;BME280;56038;46.080;11.116;2022-09-09T14:33:28;98856.44;;;34.65;25.97
68988;BME280;56038;46.080;11.116;2022-09-09T14:38:31;98851.03;;;33.91;27.37
68988;BME280;56038;46.080;11.116;2022-09-09T14:43:35;98839.69;;;34.68;27.35
68988;BME280;56038;46.080;11.116;2022-09-09T14:48:38;98837.75;;;33.83;27.88
68988;BME280;56038;46.080;11.116;2022-09-09T14:53:41;98832.22;;;32.07;30.04
68988;BME280;56038;46.080;11.116;2022-09-09T14:58:45;98825.50;;;29.19;35.16
68988;BME280;56038;46.080;11.116;2022-09-09T15:03:52;98833.13;;;27.78;37.90
68988;BME280;56038;46.080;11.116;2022-09-09T15:08:55;98842.09;;;27.10;39.67
68988;BME280;56038;46.080;11.116;2022-09-09T15:13:59;98828.44;;;26.74;40.67
68988;BME280;56038;46.080;11.116;2022-09-09T15:19:02;98828.53;;;26.18;41.56
68988;BME280;56038;46.080;11.116;2022-09-09T15:24:04;98829.84;;;25.83;42.21
68988;BME280;56038;46.080;11.116;2022-09-09T15:29:09;98815.16;;;25.63;42.48
68988;BME280;56038;46.080;11.116;2022-09-09T15:34:10;98809.97;;;25.53;42.64
68988;BME280;56038;46.080;11.116;2022-09-09T15:39:15;98821.88;;;25.34;43.75
68988;BME280;56038;46.080;11.116;2022-09-09T15:44:19;98824.06;;;25.06;45.35
68988;BME280;56038;46.080;11.116;2022-09-09T15:49:22;98826.38;;;24.85;46.22
68988;BME280;56038;46.080;11.116;2022-09-09T15:54:25;98835.06;;;24.79;46.93
68988;BME280;56038;46.080;11.116;2022-09-09T15:59:30;98834.53;;;24.67;46.35
68988;BME280;56038;46.080;11.116;2022-09-09T16:04:32;98834.97;;;24.38;46.82
68988;BME280;56038;46.080;11.116;2022-09-09T16:09:34;98841.47;;;24.36;47.21
68988;BME280;56038;46.080;11.116;2022-09-09T16:14:38;98830.03;;;24.26;47.13
68988;BME280;56038;46.080;11.116;2022-09-09T16:19:39;98841.50;;;24.10;46.95
68988;BME280;56038;46.080;11.116;2022-09-09T16:24:41;98841.50;;;24.10;47.73
68988;BME280;56038;46.080;11.116;2022-09-09T16:29:46;98849.63;;;24.00;47.10
68988;BME280;56038;46.080;11.116;2022-09-09T16:34:47;98846.91;;;23.92;47.33
68988;BME280;56038;46.080;11.116;2022-09-09T16:39:49;98864.09;;;23.98;47.83
68988;BME280;56038;46.080;11.116;2022-09-09T16:44:52;98867.91;;;23.61;48.38
68988;BME280;56038;46.080;11.116;2022-09-09T16:49:54;98880.28;;;23.26;49.31
68988;BME280;56038;46.080;11.116;2022-09-09T16:54:57;98891.56;;;23.20;49.14
68988;BME280;56038;46.080;11.116;2022-09-09T17:00:00;98896.97;;;23.11;50.00
68988;BME280;56038;46.080;11.116;2022-09-09T17:05:05;98897.81;;;23.11;50.27
68988;BME280;56038;46.080;11.116;2022-09-09T17:10:07;98897.44;;;22.79;52.07
68988;BME280;56038;46.080;11.116;2022-09-09T17:15:11;98896.44;;;22.62;53.21
68988;BME280;56038;46.080;11.116;2022-09-09T17:20:13;98910.78;;;22.51;53.85
68988;BME280;56038;46.080;11.116;2022-09-09T17:25:16;98920.41;;;22.34;54.32
68988;BME280;56038;46.080;11.116;2022-09-09T17:30:19;98919.66;;;22.15;54.77
68988;BME280;56038;46.080;11.116;2022-09-09T17:35:21;98923.13;;;22.15;54.70
68988;BME280;56038;46.080;11.116;2022-09-09T17:40:23;98925.81;;;22.05;54.83
68988;BME280;56038;46.080;11.116;2022-09-09T17:45:28;98950.19;;;21.91;55.30
68988;BME280;56038;46.080;11.116;2022-09-09T17:50:30;98952.97;;;21.99;55.47
68988;BME280;56038;46.080;11.116;2022-09-09T17:55:34;98958.28;;;21.99;55.01
68988;BME280;56038;46.080;11.116;2022-09-09T18:00:37;98971.19;;;21.94;55.63
68988;BME280;56038;46.080;11.116;2022-09-09T18:05:38;98967.69;;;21.94;55.85
68988;BME280;56038;46.080;11.116;2022-09-09T18:10:40;98964.16;;;21.93;55.93
68988;BME280;56038;46.080;11.116;2022-09-09T18:15:45;98985.19;;;21.87;56.41
68988;BME280;56038;46.080;11.116;2022-09-09T18:20:56;99001.03;;;21.78;56.80
68988;BME280;56038;46.080;11.116;2022-09-09T18:25:58;99017.66;;;21.61;58.03
68988;BME280;56038;46.080;11.116;2022-09-09T18:31:05;99028.44;;;21.60;57.79
68988;BME280;56038;46.080;11.116;2022-09-09T18:36:08;99025.25;;;21.46;58.67
68988;BME280;56038;46.080;11.116;2022-09-09T18:41:14;99020.78;;;20.57;65.19
68988;BME280;56038;46.080;11.116;2022-09-09T18:46:18;99055.22;;;20.47;66.05
68988;BME280;56038;46.080;11.116;2022-09-09T18:51:22;99067.31;;;19.98;66.98
68988;BME280;56038;46.080;11.116;2022-09-09T18:56:24;99061.88;;;20.00;69.21
68988;BME280;56038;46.080;11.116;2022-09-09T19:01:29;99078.75;;;19.99;70.67
68988;BME280;56038;46.080;11.116;2022-09-09T19:06:31;99094.22;;;19.94;71.40
68988;BME280;56038;46.080;11.116;2022-09-09T19:11:34;99117.94;;;19.52;73.24
68988;BME280;56038;46.080;11.116;2022-09-09T19:16:37;99108.75;;;19.67;73.57
68988;BME280;56038;46.080;11.116;2022-09-09T19:21:40;99122.13;;;19.77;72.76
68988;BME280;56038;46.080;11.116;2022-09-09T19:26:44;99121.31;;;19.54;72.16
68988;BME280;56038;46.080;11.116;2022-09-09T19:31:49;99123.75;;;19.24;74.51
68988;BME280;56038;46.080;11.116;2022-09-09T19:36:51;99158.56;;;19.41;74.17
68988;BME280;56038;46.080;11.116;2022-09-09T19:41:53;99147.13;;;19.41;73.03
68988;BME280;56038;46.080;11.116;2022-09-09T19:46:56;99150.97;;;19.26;74.64
68988;BME280;56038;46.080;11.116;2022-09-09T19:51:59;99169.50;;;19.03;74.04
68988;BME280;56038;46.080;11.116;2022-09-09T19:57:02;99167.56;;;19.05;74.02
68988;BME280;56038;46.080;11.116;2022-09-09T20:02:05;99163.75;;;19.09;74.62
68988;BME280;56038;46.080;11.116;2022-09-09T20:07:07;99173.47;;;19.42;72.84
68988;BME280;56038;46.080;11.116;2022-09-09T20:12:09;99183.22;;;19.20;72.18
68988;BME280;56038;46.080;11.116;2022-09-09T20:17:12;99179.63;;;18.98;73.49
68988;BME280;56038;46.080;11.116;2022-09-09T20:22:14;99180.09;;;19.14;72.74
68988;BME280;56038;46.080;11.116;2022-09-09T20:27:15;99192.84;;;19.21;72.55
68988;BME280;56038;46.080;11.116;2022-09-09T20:32:19;99185.75;;;18.99;73.67
68988;BME280;56038;46.080;11.116;2022-09-09T20:37:21;99193.09;;;19.18;73.04
68988;BME280;56038;46.080;11.116;2022-09-09T20:42:23;99195.94;;;18.70;74.92
68988;BME280;56038;46.080;11.116;2022-09-09T20:47:26;99204.03;;;18.79;74.67
68988;BME280;56038;46.080;11.116;2022-09-09T20:52:28;99209.91;;;18.83;74.01
68988;BME280;56038;46.080;11.116;2022-09-09T20:57:29;99225.28;;;18.67;75.40
68988;BME280;56038;46.080;11.116;2022-09-09T21:02:33;99238.38;;;18.68;74.76
68988;BME280;56038;46.080;11.116;2022-09-09T21:07:34;99226.53;;;18.61;75.98
68988;BME280;56038;46.080;11.116;2022-09-09T21:12:36;99231.94;;;18.60;75.80
68988;BME280;56038;46.080;11.116;2022-09-09T21:17:39;99229.00;;;18.75;75.10
68988;BME280;56038;46.080;11.116;2022-09-09T21:22:41;99228.97;;;19.10;73.76
68988;BME280;56038;46.080;11.116;2022-09-09T21:27:43;99235.47;;;19.29;72.99
68988;BME280;56038;46.080;11.116;2022-09-09T21:32:46;99242.19;;;19.22;72.85
68988;BME280;56038;46.080;11.116;2022-09-09T21:37:48;99233.28;;;19.00;72.98
68988;BME280;56038;46.080;11.116;2022-09-09T21:42:50;99238.88;;;18.73;71.38
68988;BME280;56038;46.080;11.116;2022-09-09T21:47:53;99241.19;;;18.78;70.32
68988;BME280;56038;46.080;11.116;2022-09-09T21:52:54;99243.50;;;18.94;70.22
68988;BME280;56038;46.080;11.116;2022-09-09T21:57:56;99254.66;;;18.86;69.89
68988;BME280;56038;46.080;11.116;2022-09-09T22:03:00;99251.69;;;19.02;69.18
68988;BME280;56038;46.080;11.116;2022-09-09T22:08:09;99251.28;;;18.84;69.38
68988;BME280;56038;46.080;11.116;2022-09-09T22:13:11;99254.06;;;18.82;68.46
68988;BME280;56038;46.080;11.116;2022-09-09T22:18:14;99255.38;;;18.88;67.84
68988;BME280;56038;46.080;11.116;2022-09-09T22:23:18;99252.38;;;18.93;68.16
68988;BME280;56038;46.080;11.116;2022-09-09T22:28:21;99263.28;;;18.66;69.95
68988;BME280;56038;46.080;11.116;2022-09-09T22:33:24;99263.59;;;18.37;71.38
68988;BME280;56038;46.080;11.116;2022-09-09T22:38:26;99252.06;;;18.62;69.75
68988;BME280;56038;46.080;11.116;2022-09-09T22:43:28;99256.75;;;18.35;70.01
68988;BME280;56038;46.080;11.116;2022-09-09T22:48:34;99266.00;;;18.40;69.09
68988;BME280;56038;46.080;11.116;2022-09-09T22:53:38;99273.53;;;18.58;68.85
68988;BME280;56038;46.080;11.116;2022-09-09T22:58:40;99275.44;;;18.68;67.48
68988;BME280;56038;46.080;11.116;2022-09-09T23:03:43;99271.97;;;18.55;68.14
68988;BME280;56038;46.080;11.116;2022-09-09T23:08:47;99270.97;;;18.21;68.46
68988;BME280;56038;46.080;11.116;2022-09-09T23:13:51;99270.69;;;18.13;67.72
68988;BME280;56038;46.080;11.116;2022-09-09T23:18:54;99268.78;;;18.15;67.16
68988;BME280;56038;46.080;11.116;2022-09-09T23:23:57;99282.63;;;18.18;67.69
68988;BME280;56038;46.080;11.116;2022-09-09T23:28:59;99297.66;;;18.18;67.41
68988;BME280;56038;46.080;11.116;2022-09-09T23:34:03;99291.28;;;18.20;67.12
68988;BME280;56038;46.080;11.116;2022-09-09T23:39:06;99286.78;;;18.34;66.47
68988;BME280;56038;46.080;11.116;2022-09-09T23:44:08;99284.94;;;18.23;66.42
68988;BME280;56038;46.080;11.116;2022-09-09T23:49:13;99284.53;;;18.16;67.67
68988;BME280;56038;46.080;11.116;2022-09-09T23:54:15;99286.53;;;18.13;67.41
68988;BME280;56038;46.080;11.116;2022-09-09T23:59:16;99287.00;;;18.07;67.03
